sensor_id;sensor_type;location;lat;lon;timestamp;pressure;altitude;pressure_sealevel;temperature;humidity
20930;BME280;21895;47.072;15.132;2024-03-17T00:00:38;97133.00;;;8.20;81.92
20930;BME280;21895;47.072;15.132;2024-03-17T00:03:09;97141.00;;;8.25;80.95
20930;BME280;21895;47.072;15.132;2024-03-17T00:05:36;97148.00;;;7.76;76.65
20930;BME280;21895;47.072;15.132;2024-03-17T00:08:03;97147.00;;;7.26;79.85
20930;BME280;21895;47.072;15.132;2024-03-17T00:10:34;97142.00;;;7.01;82.14
20930;BME280;21895;47.072;15.132;2024-03-17T00:13:00;97142.00;;;7.46;83.93
20930;BME280;21895;47.072;15.132;2024-03-17T00:15:27;97141.00;;;7.83;83.74
20930;BME280;21895;47.072;15.132;2024-03-17T00:17:54;97145.00;;;7.87;83.74
20930;BME280;21895;47.072;15.132;2024-03-17T00:20:21;97156.00;;;7.84;83.49
20930;BME280;21895;47.072;15.132;2024-03-17T00:22:49;97147.00;;;7.75;83.83
20930;BME280;21895;47.072;15.132;2024-03-17T00:25:17;97151.00;;;7.71;83.74
20930;BME280;21895;47.072;15.132;2024-03-17T00:27:46;97161.00;;;7.58;81.03
20930;BME280;21895;47.072;15.132;2024-03-17T00:30:14;97149.00;;;7.65;81.26
20930;BME280;21895;47.072;15.132;2024-03-17T00:32:42;97160.00;;;7.39;82.46
20930;BME280;21895;47.072;15.132;2024-03-17T00:35:10;97157.00;;;7.06;82.68
20930;BME280;21895;47.072;15.132;2024-03-17T00:37:40;97158.00;;;6.99;83.01
20930;BME280;21895;47.072;15.132;2024-03-17T00:40:07;97160.00;;;7.37;84.21
20930;BME280;21895;47.072;15.132;2024-03-17T00:42:34;97162.00;;;7.47;83.95
20930;BME280;21895;47.072;15.132;2024-03-17T00:45:00;97166.00;;;7.24;80.37
20930;BME280;21895;47.072;15.132;2024-03-17T00:47:27;97166.00;;;6.88;78.85
20930;BME280;21895;47.072;15.132;2024-03-17T00:49:54;97165.00;;;6.55;79.01
20930;BME280;21895;47.072;15.132;2024-03-17T00:52:20;97179.00;;;6.20;77.59
20930;BME280;21895;47.072;15.132;2024-03-17T00:54:47;97185.00;;;5.91;80.11
20930;BME280;21895;47.072;15.132;2024-03-17T00:57:17;97181.00;;;5.85;79.92
20930;BME280;21895;47.072;15.132;2024-03-17T00:59:43;97177.00;;;5.86;81.16
20930;BME280;21895;47.072;15.132;2024-03-17T01:02:16;97171.00;;;5.87;80.78
20930;BME280;21895;47.072;15.132;2024-03-17T01:04:43;97175.00;;;5.78;79.90
20930;BME280;21895;47.072;15.132;2024-03-17T01:07:11;97166.00;;;5.77;80.14
20930;BME280;21895;47.072;15.132;2024-03-17T01:09:38;97170.00;;;5.67;80.81
20930;BME280;21895;47.072;15.132;2024-03-17T01:12:05;97172.00;;;5.69;81.71
20930;BME280;21895;47.072;15.132;2024-03-17T01:14:35;97165.00;;;5.68;81.72
20930;BME280;21895;47.072;15.132;2024-03-17T01:17:02;97179.00;;;5.79;81.69
20930;BME280;21895;47.072;15.132;2024-03-17T01:19:32;97176.00;;;5.66;80.99
20930;BME280;21895;47.072;15.132;2024-03-17T01:22:01;97184.00;;;5.61;80.75
20930;BME280;21895;47.072;15.132;2024-03-17T01:24:28;97176.00;;;5.54;80.50
20930;BME280;21895;47.072;15.132;2024-03-17T01:26:58;97173.00;;;5.31;80.57
20930;BME280;21895;47.072;15.132;2024-03-17T01:29:26;97173.00;;;5.24;82.19
20930;BME280;21895;47.072;15.132;2024-03-17T01:31:52;97170.00;;;5.27;83.51
20930;BME280;21895;47.072;15.132;2024-03-17T01:34:19;97163.00;;;5.53;82.44
20930;BME280;21895;47.072;15.132;2024-03-17T01:36:46;97165.00;;;5.55;81.57
20930;BME280;21895;47.072;15.132;2024-03-17T01:39:13;97174.00;;;5.54;80.71
20930;BME280;21895;47.072;15.132;2024-03-17T01:41:40;97169.00;;;5.38;80.28
20930;BME280;21895;47.072;15.132;2024-03-17T01:44:06;97168.00;;;5.29;80.67
20930;BME280;21895;47.072;15.132;2024-03-17T01:46:33;97166.00;;;5.20;80.54
20930;BME280;21895;47.072;15.132;2024-03-17T01:49:00;97175.00;;;5.36;85.48
20930;BME280;21895;47.072;15.132;2024-03-17T01:51:27;97171.00;;;5.67;86.61
20930;BME280;21895;47.072;15.132;2024-03-17T01:53:55;97165.00;;;5.93;86.76
20930;BME280;21895;47.072;15.132;2024-03-17T01:56:23;97171.00;;;6.08;84.33
20930;BME280;21895;47.072;15.132;2024-03-17T01:58:50;97170.00;;;5.98;84.65
20930;BME280;21895;47.072;15.132;2024-03-17T02:01:17;97173.00;;;6.07;83.68
20930;BME280;21895;47.072;15.132;2024-03-17T02:03:43;97163.00;;;6.29;82.00
20930;BME280;21895;47.072;15.132;2024-03-17T02:06:10;97167.00;;;6.14;82.95
20930;BME280;21895;47.072;15.132;2024-03-17T02:08:53;97173.00;;;6.10;81.36
20930;BME280;21895;47.072;15.132;2024-03-17T02:11:32;97174.00;;;5.98;80.72
20930;BME280;21895;47.072;15.132;2024-03-17T02:14:00;97173.00;;;5.87;81.29
20930;BME280;21895;47.072;15.132;2024-03-17T02:16:27;97177.00;;;5.88;82.72
20930;BME280;21895;47.072;15.132;2024-03-17T02:18:58;97178.00;;;6.05;83.37
20930;BME280;21895;47.072;15.132;2024-03-17T02:21:26;97174.00;;;6.06;82.34
20930;BME280;21895;47.072;15.132;2024-03-17T02:23:56;97168.00;;;6.05;82.79
20930;BME280;21895;47.072;15.132;2024-03-17T02:26:25;97175.00;;;6.18;82.31
20930;BME280;21895;47.072;15.132;2024-03-17T02:28:52;97177.00;;;6.17;82.99
20930;BME280;21895;47.072;15.132;2024-03-17T02:31:19;97174.00;;;6.26;81.67
20930;BME280;21895;47.072;15.132;2024-03-17T02:33:46;97179.00;;;6.17;81.96
20930;BME280;21895;47.072;15.132;2024-03-17T02:36:13;97177.00;;;6.16;81.79
20930;BME280;21895;47.072;15.132;2024-03-17T02:38:40;97178.00;;;6.09;82.35
20930;BME280;21895;47.072;15.132;2024-03-17T02:41:26;97177.00;;;6.39;83.19
20930;BME280;21895;47.072;15.132;2024-03-17T02:43:53;97175.00;;;6.67;83.18
20930;BME280;21895;47.072;15.132;2024-03-17T02:46:20;97174.00;;;6.68;83.85
20930;BME280;21895;47.072;15.132;2024-03-17T02:48:50;97173.00;;;6.73;81.58
20930;BME280;21895;47.072;15.132;2024-03-17T02:51:20;97175.00;;;6.42;79.79
20930;BME280;21895;47.072;15.132;2024-03-17T02:53:48;97168.00;;;6.20;79.94
20930;BME280;21895;47.072;15.132;2024-03-17T02:56:16;97177.00;;;6.09;81.94
20930;BME280;21895;47.072;15.132;2024-03-17T02:58:45;97180.00;;;6.17;81.85
20930;BME280;21895;47.072;15.132;2024-03-17T03:01:15;97180.00;;;6.24;82.21
20930;BME280;21895;47.072;15.132;2024-03-17T03:03:42;97162.00;;;6.33;82.20
20930;BME280;21895;47.072;15.132;2024-03-17T03:06:09;97156.00;;;6.37;81.99
20930;BME280;21895;47.072;15.132;2024-03-17T03:08:41;97170.00;;;6.47;82.10
20930;BME280;21895;47.072;15.132;2024-03-17T03:11:10;97168.00;;;6.35;82.78
20930;BME280;21895;47.072;15.132;2024-03-17T03:13:42;97175.00;;;6.47;82.62
20930;BME280;21895;47.072;15.132;2024-03-17T03:16:11;97178.00;;;6.56;82.61
20930;BME280;21895;47.072;15.132;2024-03-17T03:18:39;97173.00;;;6.69;82.25
20930;BME280;21895;47.072;15.132;2024-03-17T03:21:06;97174.00;;;6.71;81.62
20930;BME280;21895;47.072;15.132;2024-03-17T03:23:34;97166.00;;;6.48;82.07
20930;BME280;21895;47.072;15.132;2024-03-17T03:26:03;97169.00;;;6.34;83.14
20930;BME280;21895;47.072;15.132;2024-03-17T03:28:32;97164.00;;;6.42;83.03
20930;BME280;21895;47.072;15.132;2024-03-17T03:31:01;97172.00;;;6.64;82.60
20930;BME280;21895;47.072;15.132;2024-03-17T03:33:28;97177.00;;;6.55;81.86
20930;BME280;21895;47.072;15.132;2024-03-17T03:35:55;97175.00;;;6.38;82.12
20930;BME280;21895;47.072;15.132;2024-03-17T03:38:22;97181.00;;;6.58;82.05
20930;BME280;21895;47.072;15.132;2024-03-17T03:40:49;97179.00;;;6.47;82.70
20930;BME280;21895;47.072;15.132;2024-03-17T03:43:16;97185.00;;;6.48;83.24
20930;BME280;21895;47.072;15.132;2024-03-17T03:45:42;97179.00;;;6.56;83.24
20930;BME280;21895;47.072;15.132;2024-03-17T03:48:09;97179.00;;;6.90;82.00
20930;BME280;21895;47.072;15.132;2024-03-17T03:50:37;97186.00;;;6.78;81.85
20930;BME280;21895;47.072;15.132;2024-03-17T03:53:04;97186.00;;;6.66;82.50
20930;BME280;21895;47.072;15.132;2024-03-17T03:55:32;97184.00;;;6.66;82.99
20930;BME280;21895;47.072;15.132;2024-03-17T03:57:59;97188.00;;;6.67;81.66
20930;BME280;21895;47.072;15.132;2024-03-17T04:00:25;97190.00;;;6.32;82.25
20930;BME280;21895;47.072;15.132;2024-03-17T04:02:56;97195.00;;;6.45;82.78
20930;BME280;21895;47.072;15.132;2024-03-17T04:05:23;97193.00;;;6.49;83.09
20930;BME280;21895;47.072;15.132;2024-03-17T04:07:49;97193.00;;;6.51;82.90
20930;BME280;21895;47.072;15.132;2024-03-17T04:10:16;97200.00;;;6.43;83.44
20930;BME280;21895;47.072;15.132;2024-03-17T04:12:45;97195.00;;;6.29;84.23
20930;BME280;21895;47.072;15.132;2024-03-17T04:15:12;97198.00;;;6.42;84.34
20930;BME280;21895;47.072;15.132;2024-03-17T04:17:38;97198.00;;;6.52;83.94
20930;BME280;21895;47.072;15.132;2024-03-17T04:20:06;97200.00;;;6.70;82.41
20930;BME280;21895;47.072;15.132;2024-03-17T04:22:36;97199.00;;;6.56;82.91
20930;BME280;21895;47.072;15.132;2024-03-17T04:25:04;97196.00;;;6.54;83.55
20930;BME280;21895;47.072;15.132;2024-03-17T04:27:30;97197.00;;;6.61;83.37
20930;BME280;21895;47.072;15.132;2024-03-17T04:29:59;97189.00;;;6.76;82.79
20930;BME280;21895;47.072;15.132;2024-03-17T04:32:26;97197.00;;;6.78;82.09
20930;BME280;21895;47.072;15.132;2024-03-17T04:34:57;97196.00;;;6.64;81.61
20930;BME280;21895;47.072;15.132;2024-03-17T04:37:25;97188.00;;;6.56;81.77
20930;BME280;21895;47.072;15.132;2024-03-17T04:39:51;97197.00;;;6.33;82.52
20930;BME280;21895;47.072;15.132;2024-03-17T04:42:18;97197.00;;;6.35;83.60
20930;BME280;21895;47.072;15.132;2024-03-17T04:44:46;97200.00;;;6.37;81.75
20930;BME280;21895;47.072;15.132;2024-03-17T04:47:12;97208.00;;;6.15;81.64
20930;BME280;21895;47.072;15.132;2024-03-17T04:49:44;97206.00;;;6.12;81.42
20930;BME280;21895;47.072;15.132;2024-03-17T04:52:12;97208.00;;;6.02;81.54
20930;BME280;21895;47.072;15.132;2024-03-17T04:54:39;97210.00;;;5.96;82.26
20930;BME280;21895;47.072;15.132;2024-03-17T04:57:09;97209.00;;;5.89;82.82
20930;BME280;21895;47.072;15.132;2024-03-17T04:59:36;97207.00;;;5.88;83.64
20930;BME280;21895;47.072;15.132;2024-03-17T05:02:05;97225.00;;;5.91;82.66
20930;BME280;21895;47.072;15.132;2024-03-17T05:04:31;97222.00;;;5.91;82.81
20930;BME280;21895;47.072;15.132;2024-03-17T05:06:58;97217.00;;;6.07;81.48
20930;BME280;21895;47.072;15.132;2024-03-17T05:09:25;97223.00;;;5.90;81.02
20930;BME280;21895;47.072;15.132;2024-03-17T05:11:51;97218.00;;;5.82;82.15
20930;BME280;21895;47.072;15.132;2024-03-17T05:14:18;97218.00;;;5.93;80.91
20930;BME280;21895;47.072;15.132;2024-03-17T05:16:51;97230.00;;;5.68;79.96
20930;BME280;21895;47.072;15.132;2024-03-17T05:19:18;97223.00;;;5.57;80.50
20930;BME280;21895;47.072;15.132;2024-03-17T05:21:47;97224.00;;;5.60;81.50
20930;BME280;21895;47.072;15.132;2024-03-17T05:24:14;97236.00;;;5.50;82.28
20930;BME280;21895;47.072;15.132;2024-03-17T05:26:40;97233.00;;;5.47;83.15
20930;BME280;21895;47.072;15.132;2024-03-17T05:29:08;97231.00;;;5.44;83.76
20930;BME280;21895;47.072;15.132;2024-03-17T05:31:36;97245.00;;;5.81;83.11
20930;BME280;21895;47.072;15.132;2024-03-17T05:34:06;97228.00;;;5.85;83.04
20930;BME280;21895;47.072;15.132;2024-03-17T05:36:33;97238.00;;;6.20;83.87
20930;BME280;21895;47.072;15.132;2024-03-17T05:39:00;97229.00;;;6.50;86.54
20930;BME280;21895;47.072;15.132;2024-03-17T05:41:27;97233.00;;;6.56;83.28
20930;BME280;21895;47.072;15.132;2024-03-17T05:43:54;97234.00;;;6.31;80.92
20930;BME280;21895;47.072;15.132;2024-03-17T05:46:25;97244.00;;;6.09;81.62
20930;BME280;21895;47.072;15.132;2024-03-17T05:48:55;97238.00;;;5.93;82.06
20930;BME280;21895;47.072;15.132;2024-03-17T05:51:22;97233.00;;;6.08;83.23
20930;BME280;21895;47.072;15.132;2024-03-17T05:53:48;97242.00;;;6.07;83.28
20930;BME280;21895;47.072;15.132;2024-03-17T05:56:15;97233.00;;;6.09;83.00
20930;BME280;21895;47.072;15.132;2024-03-17T05:58:44;97243.00;;;6.27;83.33
20930;BME280;21895;47.072;15.132;2024-03-17T06:01:10;97245.00;;;6.25;82.65
20930;BME280;21895;47.072;15.132;2024-03-17T06:03:37;97243.00;;;6.45;82.21
20930;BME280;21895;47.072;15.132;2024-03-17T06:06:06;97245.00;;;6.66;81.72
20930;BME280;21895;47.072;15.132;2024-03-17T06:08:38;97253.00;;;6.68;81.55
20930;BME280;21895;47.072;15.132;2024-03-17T06:11:05;97253.00;;;6.74;81.21
20930;BME280;21895;47.072;15.132;2024-03-17T06:13:32;97254.00;;;6.82;81.43
20930;BME280;21895;47.072;15.132;2024-03-17T06:15:58;97246.00;;;7.13;82.30
20930;BME280;21895;47.072;15.132;2024-03-17T06:18:28;97251.00;;;7.06;81.96
20930;BME280;21895;47.072;15.132;2024-03-17T06:20:55;97245.00;;;7.24;82.44
20930;BME280;21895;47.072;15.132;2024-03-17T06:23:27;97247.00;;;7.28;82.88
20930;BME280;21895;47.072;15.132;2024-03-17T06:25:54;97250.00;;;7.40;82.99
20930;BME280;21895;47.072;15.132;2024-03-17T06:28:22;97247.00;;;7.65;81.60
20930;BME280;21895;47.072;15.132;2024-03-17T06:30:58;97257.00;;;7.86;80.25
20930;BME280;21895;47.072;15.132;2024-03-17T06:33:33;97257.00;;;7.96;79.86
20930;BME280;21895;47.072;15.132;2024-03-17T06:36:04;97248.00;;;8.18;80.08
20930;BME280;21895;47.072;15.132;2024-03-17T06:38:32;97250.00;;;8.37;79.57
20930;BME280;21895;47.072;15.132;2024-03-17T06:40:58;97257.00;;;8.77;79.21
20930;BME280;21895;47.072;15.132;2024-03-17T06:43:25;97250.00;;;9.09;78.21
20930;BME280;21895;47.072;15.132;2024-03-17T06:45:59;97251.00;;;9.20;76.62
20930;BME280;21895;47.072;15.132;2024-03-17T06:48:28;97253.00;;;9.46;75.98
20930;BME280;21895;47.072;15.132;2024-03-17T06:50:55;97253.00;;;9.71;75.80
20930;BME280;21895;47.072;15.132;2024-03-17T06:53:23;97248.00;;;9.95;74.10
20930;BME280;21895;47.072;15.132;2024-03-17T06:55:57;97244.00;;;10.42;73.13
20930;BME280;21895;47.072;15.132;2024-03-17T06:58:26;97244.00;;;10.65;71.80
20930;BME280;21895;47.072;15.132;2024-03-17T07:01:00;97250.00;;;11.21;70.62
20930;BME280;21895;47.072;15.132;2024-03-17T07:03:31;97249.00;;;11.21;68.73
20930;BME280;21895;47.072;15.132;2024-03-17T07:06:02;97251.00;;;11.59;68.91
20930;BME280;21895;47.072;15.132;2024-03-17T07:08:30;97253.00;;;11.43;67.92
20930;BME280;21895;47.072;15.132;2024-03-17T07:11:07;97255.00;;;11.49;68.86
20930;BME280;21895;47.072;15.132;2024-03-17T07:13:35;97254.00;;;11.78;67.60
20930;BME280;21895;47.072;15.132;2024-03-17T07:16:04;97246.00;;;11.60;67.66
20930;BME280;21895;47.072;15.132;2024-03-17T07:18:34;97243.00;;;11.53;68.28
20930;BME280;21895;47.072;15.132;2024-03-17T07:21:03;97248.00;;;11.48;68.48
20930;BME280;21895;47.072;15.132;2024-03-17T07:23:31;97248.00;;;11.53;68.61
20930;BME280;21895;47.072;15.132;2024-03-17T07:26:00;97244.00;;;11.78;69.06
20930;BME280;21895;47.072;15.132;2024-03-17T07:28:27;97237.00;;;11.99;68.30
20930;BME280;21895;47.072;15.132;2024-03-17T07:30:55;97233.00;;;12.35;65.65
20930;BME280;21895;47.072;15.132;2024-03-17T07:33:23;97232.00;;;12.51;64.65
20930;BME280;21895;47.072;15.132;2024-03-17T07:35:55;97238.00;;;12.77;62.77
20930;BME280;21895;47.072;15.132;2024-03-17T07:38:24;97236.00;;;12.86;62.80
20930;BME280;21895;47.072;15.132;2024-03-17T07:41:08;97237.00;;;13.21;61.57
20930;BME280;21895;47.072;15.132;2024-03-17T07:43:37;97230.00;;;13.39;61.86
20930;BME280;21895;47.072;15.132;2024-03-17T07:46:12;97239.00;;;13.48;62.70
20930;BME280;21895;47.072;15.132;2024-03-17T07:48:41;97242.00;;;13.50;62.14
20930;BME280;21895;47.072;15.132;2024-03-17T07:51:15;97229.00;;;13.67;62.39
20930;BME280;21895;47.072;15.132;2024-03-17T07:53:45;97236.00;;;13.68;61.88
20930;BME280;21895;47.072;15.132;2024-03-17T07:56:13;97231.00;;;13.75;60.95
20930;BME280;21895;47.072;15.132;2024-03-17T07:58:43;97237.00;;;13.94;60.65
20930;BME280;21895;47.072;15.132;2024-03-17T08:01:12;97235.00;;;14.08;59.85
20930;BME280;21895;47.072;15.132;2024-03-17T08:03:42;97224.00;;;14.27;58.63
20930;BME280;21895;47.072;15.132;2024-03-17T08:06:10;97233.00;;;14.52;57.05
20930;BME280;21895;47.072;15.132;2024-03-17T08:08:37;97228.00;;;14.65;54.44
20930;BME280;21895;47.072;15.132;2024-03-17T08:11:04;97227.00;;;14.56;53.39
20930;BME280;21895;47.072;15.132;2024-03-17T08:13:32;97217.00;;;14.87;52.28
20930;BME280;21895;47.072;15.132;2024-03-17T08:16:05;97221.00;;;14.93;52.17
20930;BME280;21895;47.072;15.132;2024-03-17T08:18:33;97220.00;;;14.90;52.75
20930;BME280;21895;47.072;15.132;2024-03-17T08:21:01;97206.00;;;15.20;52.39
20930;BME280;21895;47.072;15.132;2024-03-17T08:23:30;97211.00;;;15.27;52.42
20930;BME280;21895;47.072;15.132;2024-03-17T08:26:00;97205.00;;;15.27;51.61
20930;BME280;21895;47.072;15.132;2024-03-17T08:28:27;97206.00;;;15.17;49.11
20930;BME280;21895;47.072;15.132;2024-03-17T08:30:59;97203.00;;;15.20;49.36
20930;BME280;21895;47.072;15.132;2024-03-17T08:33:27;97194.00;;;15.20;49.00
20930;BME280;21895;47.072;15.132;2024-03-17T08:36:03;97194.00;;;15.50;47.93
20930;BME280;21895;47.072;15.132;2024-03-17T08:38:32;97198.00;;;15.46;47.40
20930;BME280;21895;47.072;15.132;2024-03-17T08:41:07;97196.00;;;15.53;47.34
20930;BME280;21895;47.072;15.132;2024-03-17T08:43:35;97183.00;;;15.73;46.94
20930;BME280;21895;47.072;15.132;2024-03-17T08:46:07;97175.00;;;15.89;46.45
20930;BME280;21895;47.072;15.132;2024-03-17T08:48:39;97174.00;;;15.88;46.56
20930;BME280;21895;47.072;15.132;2024-03-17T08:51:07;97175.00;;;16.07;45.47
20930;BME280;21895;47.072;15.132;2024-03-17T08:53:34;97175.00;;;16.07;45.62
20930;BME280;21895;47.072;15.132;2024-03-17T08:56:03;97168.00;;;16.20;45.25
20930;BME280;21895;47.072;15.132;2024-03-17T08:58:30;97166.00;;;16.41;45.55
20930;BME280;21895;47.072;15.132;2024-03-17T09:00:56;97169.00;;;16.52;44.73
20930;BME280;21895;47.072;15.132;2024-03-17T09:03:23;97165.00;;;16.43;44.14
20930;BME280;21895;47.072;15.132;2024-03-17T09:05:51;97172.00;;;16.61;42.53
20930;BME280;21895;47.072;15.132;2024-03-17T09:08:23;97160.00;;;16.81;43.48
20930;BME280;21895;47.072;15.132;2024-03-17T09:10:52;97154.00;;;16.81;43.89
20930;BME280;21895;47.072;15.132;2024-03-17T09:13:23;97159.00;;;16.82;44.41
20930;BME280;21895;47.072;15.132;2024-03-17T09:16:00;97154.00;;;16.82;44.40
20930;BME280;21895;47.072;15.132;2024-03-17T09:18:32;97146.00;;;16.89;45.10
20930;BME280;21895;47.072;15.132;2024-03-17T09:21:05;97153.00;;;16.85;44.39
20930;BME280;21895;47.072;15.132;2024-03-17T09:23:32;97153.00;;;17.17;43.51
20930;BME280;21895;47.072;15.132;2024-03-17T09:26:10;97147.00;;;17.25;43.32
20930;BME280;21895;47.072;15.132;2024-03-17T09:28:42;97140.00;;;17.24;43.53
20930;BME280;21895;47.072;15.132;2024-03-17T09:31:10;97147.00;;;17.15;41.87
20930;BME280;21895;47.072;15.132;2024-03-17T09:33:38;97139.00;;;17.03;43.45
20930;BME280;21895;47.072;15.132;2024-03-17T09:36:08;97134.00;;;17.21;42.83
20930;BME280;21895;47.072;15.132;2024-03-17T09:38:37;97136.00;;;17.47;42.83
20930;BME280;21895;47.072;15.132;2024-03-17T09:41:06;97137.00;;;17.39;42.44
20930;BME280;21895;47.072;15.132;2024-03-17T09:43:35;97137.00;;;17.81;41.16
20930;BME280;21895;47.072;15.132;2024-03-17T09:46:05;97132.00;;;17.92;40.06
20930;BME280;21895;47.072;15.132;2024-03-17T09:48:32;97139.00;;;17.84;40.80
20930;BME280;21895;47.072;15.132;2024-03-17T09:51:03;97124.00;;;18.18;40.14
20930;BME280;21895;47.072;15.132;2024-03-17T09:53:32;97127.00;;;18.33;39.09
20930;BME280;21895;47.072;15.132;2024-03-17T09:56:17;97128.00;;;18.34;38.88
20930;BME280;21895;47.072;15.132;2024-03-17T09:58:49;97129.00;;;18.32;38.66
20930;BME280;21895;47.072;15.132;2024-03-17T10:01:17;97124.00;;;18.34;38.59
20930;BME280;21895;47.072;15.132;2024-03-17T10:03:56;97124.00;;;18.42;38.76
20930;BME280;21895;47.072;15.132;2024-03-17T10:06:31;97116.00;;;18.31;39.94
20930;BME280;21895;47.072;15.132;2024-03-17T10:09:00;97118.00;;;18.21;39.28
20930;BME280;21895;47.072;15.132;2024-03-17T10:11:34;97118.00;;;18.19;40.53
20930;BME280;21895;47.072;15.132;2024-03-17T10:14:09;97117.00;;;18.06;42.57
20930;BME280;21895;47.072;15.132;2024-03-17T10:16:37;97111.00;;;18.33;42.25
20930;BME280;21895;47.072;15.132;2024-03-17T10:22:18;97105.00;;;18.36;40.78
20930;BME280;21895;47.072;15.132;2024-03-17T10:24:44;97104.00;;;18.37;41.11
20930;BME280;21895;47.072;15.132;2024-03-17T10:27:11;97105.00;;;18.21;41.65
20930;BME280;21895;47.072;15.132;2024-03-17T10:29:38;97103.00;;;17.96;42.09
20930;BME280;21895;47.072;15.132;2024-03-17T10:32:15;97105.00;;;17.92;42.77
20930;BME280;21895;47.072;15.132;2024-03-17T10:34:45;97097.00;;;17.77;41.92
20930;BME280;21895;47.072;15.132;2024-03-17T10:37:20;97099.00;;;17.65;43.69
20930;BME280;21895;47.072;15.132;2024-03-17T10:39:52;97093.00;;;17.84;41.64
20930;BME280;21895;47.072;15.132;2024-03-17T10:42:26;97089.00;;;18.02;43.14
20930;BME280;21895;47.072;15.132;2024-03-17T10:44:55;97086.00;;;17.98;42.97
20930;BME280;21895;47.072;15.132;2024-03-17T10:47:25;97082.00;;;18.01;42.38
20930;BME280;21895;47.072;15.132;2024-03-17T10:49:54;97085.00;;;18.08;42.63
20930;BME280;21895;47.072;15.132;2024-03-17T10:52:23;97088.00;;;17.98;41.57
20930;BME280;21895;47.072;15.132;2024-03-17T10:55:02;97087.00;;;18.09;42.70
20930;BME280;21895;47.072;15.132;2024-03-17T10:57:45;97090.00;;;18.40;41.64
20930;BME280;21895;47.072;15.132;2024-03-17T11:00:18;97079.00;;;18.44;41.11
20930;BME280;21895;47.072;15.132;2024-03-17T11:02:46;97073.00;;;18.31;40.68
20930;BME280;21895;47.072;15.132;2024-03-17T11:05:29;97073.00;;;18.45;41.38
20930;BME280;21895;47.072;15.132;2024-03-17T11:07:57;97072.00;;;18.36;41.18
20930;BME280;21895;47.072;15.132;2024-03-17T11:10:34;97062.00;;;18.62;40.25
20930;BME280;21895;47.072;15.132;2024-03-17T11:13:02;97068.00;;;18.43;41.37
20930;BME280;21895;47.072;15.132;2024-03-17T11:15:39;97063.00;;;18.21;42.12
20930;BME280;21895;47.072;15.132;2024-03-17T11:18:48;97059.00;;;18.10;41.85
20930;BME280;21895;47.072;15.132;2024-03-17T11:21:21;97053.00;;;18.05;41.01
20930;BME280;21895;47.072;15.132;2024-03-17T11:24:00;97057.00;;;18.21;41.03
20930;BME280;21895;47.072;15.132;2024-03-17T11:26:33;97053.00;;;18.29;41.94
20930;BME280;21895;47.072;15.132;2024-03-17T11:29:01;97047.00;;;18.08;42.84
20930;BME280;21895;47.072;15.132;2024-03-17T11:31:45;97054.00;;;18.06;41.94
20930;BME280;21895;47.072;15.132;2024-03-17T11:34:36;97054.00;;;18.02;41.74
20930;BME280;21895;47.072;15.132;2024-03-17T11:37:05;97047.00;;;18.27;41.09
20930;BME280;21895;47.072;15.132;2024-03-17T11:41:45;97037.00;;;18.43;39.41
20930;BME280;21895;47.072;15.132;2024-03-17T11:44:24;97037.00;;;18.40;40.38
20930;BME280;21895;47.072;15.132;2024-03-17T11:47:04;97033.00;;;18.40;39.60
20930;BME280;21895;47.072;15.132;2024-03-17T11:49:40;97031.00;;;18.30;41.10
20930;BME280;21895;47.072;15.132;2024-03-17T11:52:15;97023.00;;;18.27;41.17
20930;BME280;21895;47.072;15.132;2024-03-17T11:54:45;97019.00;;;18.36;39.50
20930;BME280;21895;47.072;15.132;2024-03-17T11:57:21;97014.00;;;18.52;39.23
20930;BME280;21895;47.072;15.132;2024-03-17T11:59:52;97017.00;;;18.40;40.72
20930;BME280;21895;47.072;15.132;2024-03-17T12:02:25;97009.00;;;18.47;40.84
20930;BME280;21895;47.072;15.132;2024-03-17T12:05:00;97011.00;;;18.24;41.51
20930;BME280;21895;47.072;15.132;2024-03-17T12:07:27;97009.00;;;18.42;40.10
20930;BME280;21895;47.072;15.132;2024-03-17T12:09:57;96999.00;;;18.68;40.29
20930;BME280;21895;47.072;15.132;2024-03-17T12:12:27;97000.00;;;18.77;39.68
20930;BME280;21895;47.072;15.132;2024-03-17T12:15:02;96984.00;;;18.54;39.56
20930;BME280;21895;47.072;15.132;2024-03-17T12:17:30;96990.00;;;18.35;40.33
20930;BME280;21895;47.072;15.132;2024-03-17T12:19:56;96985.00;;;18.50;39.43
20930;BME280;21895;47.072;15.132;2024-03-17T12:22:24;96980.00;;;18.47;39.71
20930;BME280;21895;47.072;15.132;2024-03-17T12:24:54;96986.00;;;18.74;38.88
20930;BME280;21895;47.072;15.132;2024-03-17T12:27:23;96979.00;;;18.72;38.53
20930;BME280;21895;47.072;15.132;2024-03-17T12:29:54;96972.00;;;18.70;37.60
20930;BME280;21895;47.072;15.132;2024-03-17T12:32:24;96974.00;;;18.49;38.83
20930;BME280;21895;47.072;15.132;2024-03-17T12:34:56;96970.00;;;18.42;39.40
20930;BME280;21895;47.072;15.132;2024-03-17T12:37:27;96968.00;;;18.42;39.14
20930;BME280;21895;47.072;15.132;2024-03-17T12:40:00;96965.00;;;18.31;38.89
20930;BME280;21895;47.072;15.132;2024-03-17T12:42:29;96959.00;;;18.63;38.55
20930;BME280;21895;47.072;15.132;2024-03-17T12:45:00;96957.00;;;18.59;38.73
20930;BME280;21895;47.072;15.132;2024-03-17T12:47:33;96951.00;;;18.77;38.25
20930;BME280;21895;47.072;15.132;2024-03-17T12:50:02;96944.00;;;18.59;39.79
20930;BME280;21895;47.072;15.132;2024-03-17T12:52:35;96944.00;;;18.74;38.79
20930;BME280;21895;47.072;15.132;2024-03-17T12:55:07;96934.00;;;18.73;38.62
20930;BME280;21895;47.072;15.132;2024-03-17T12:58:15;96925.00;;;18.68;39.10
20930;BME280;21895;47.072;15.132;2024-03-17T13:01:06;96925.00;;;18.89;38.83
20930;BME280;21895;47.072;15.132;2024-03-17T13:03:34;96910.00;;;18.97;40.70
20930;BME280;21895;47.072;15.132;2024-03-17T13:06:02;96922.00;;;18.81;40.94
20930;BME280;21895;47.072;15.132;2024-03-17T13:08:30;96904.00;;;18.94;39.58
20930;BME280;21895;47.072;15.132;2024-03-17T13:11:01;96910.00;;;18.80;39.73
20930;BME280;21895;47.072;15.132;2024-03-17T13:13:31;96912.00;;;18.75;40.54